Time;durP1;ratioP1;P1;durP2;ratioP2;P2;SDS_P1;SDS_P2;PMS_P1;PMS_P2;Temp;Humidity;BMP_temperature;BMP_pressure;BME280_temperature;BME280_humidity;BME280_pressure;Samples;Min_cycle;Max_cycle;Signal;HPM_P1;HPM_P2
2022/09/01 00:01:50;;;;;;;1.90;1.80;;;;;;;;;;5092440;28;20184;-80
2022/09/01 00:04:18;;;;;;;2.20;2.00;;;;;;;;;;5075812;28;20230;-80
2022/09/01 00:06:45;;;;;;;2.13;1.60;;;;;;;;;;5093833;28;20168;-80
2022/09/01 00:09:12;;;;;;;2.33;2.00;;;;;;;;;;5092699;28;20173;-80
2022/09/01 00:11:39;;;;;;;1.93;1.83;;;;;;;;;;5092298;28;20214;-81
2022/09/01 00:14:07;;;;;;;2.23;1.77;;;;;;;;;;5108625;22;20452;-75
2022/09/01 00:16:33;;;;;;;1.87;1.77;;;;;;;;;;5051098;28;20200;-75
2022/09/01 00:18:59;;;;;;;1.70;1.60;;;;;;;;;;5051320;28;20200;-75
2022/09/01 00:21:30;;;;;;;1.90;1.70;;;;;;;;;;5059259;28;20221;-75
2022/09/01 00:23:56;;;;;;;2.03;1.90;;;;;;;;;;5053154;28;20236;-75
2022/09/01 00:26:23;;;;;;;2.20;2.00;;;;;;;;;;5055845;28;20273;-75
2022/09/01 00:28:49;;;;;;;2.10;1.90;;;;;;;;;;5060079;28;20173;-76
2022/09/01 00:31:17;;;;;;;3.30;2.07;;;;;;;;;;5054349;28;20608;-75
2022/09/01 00:33:43;;;;;;;2.90;1.90;;;;;;;;;;5054832;28;20181;-75
2022/09/01 00:36:10;;;;;;;2.00;1.80;;;;;;;;;;5071260;28;20223;-75
2022/09/01 00:38:36;;;;;;;2.23;1.93;;;;;;;;;;5054391;28;20548;-75
2022/09/01 00:41:02;;;;;;;3.07;1.83;;;;;;;;;;5070910;28;20205;-76
2022/09/01 00:43:47;;;;;;;2.63;1.93;;;;;;;;;;5070657;28;20211;-75
2022/09/01 00:46:23;;;;;;;2.40;2.07;;;;;;;;;;5070877;28;20742;-75
2022/09/01 00:48:55;;;;;;;2.17;2.00;;;;;;;;;;5071193;28;20173;-75
2022/09/01 00:51:22;;;;;;;2.80;1.87;;;;;;;;;;5054010;28;20185;-75
2022/09/01 00:53:48;;;;;;;2.17;2.00;;;;;;;;;;5054375;28;20183;-75
2022/09/01 00:56:14;;;;;;;2.87;2.00;;;;;;;;;;5070728;28;20260;-76
2022/09/01 00:58:40;;;;;;;2.50;1.90;;;;;;;;;;5070662;28;20200;-75
2022/09/01 01:01:08;;;;;;;2.50;2.00;;;;;;;;;;5070627;28;20180;-75
2022/09/01 01:03:34;;;;;;;2.20;2.00;;;;;;;;;;5074329;28;20211;-75
2022/09/01 01:06:02;;;;;;;2.17;2.00;;;;;;;;;;5076136;28;20192;-75
2022/09/01 01:08:35;;;;;;;3.03;2.13;;;;;;;;;;5074791;28;20590;-75
2022/09/01 01:11:02;;;;;;;2.63;2.27;;;;;;;;;;5074744;28;20176;-75
2022/09/01 01:13:30;;;;;;;2.50;2.30;;;;;;;;;;5058108;28;20180;-75
2022/09/01 01:15:58;;;;;;;2.10;1.90;;;;;;;;;;5058281;28;20223;-75
2022/09/01 01:18:24;;;;;;;3.60;2.10;;;;;;;;;;5058057;28;20185;-75
2022/09/01 01:23:57;;;;;;;2.87;2.30;;;;;;;;;;5073667;28;20208;-75
2022/09/01 01:26:23;;;;;;;3.33;2.33;;;;;;;;;;5075521;28;20200;-75
2022/09/01 01:28:50;;;;;;;2.67;2.37;;;;;;;;;;5074420;28;20666;-75
2022/09/01 01:31:21;;;;;;;3.57;2.30;;;;;;;;;;5057630;28;20191;-76
2022/09/01 01:33:49;;;;;;;3.00;2.70;;;;;;;;;;5074175;28;20165;-75
2022/09/01 01:36:23;;;;;;;3.50;2.50;;;;;;;;;;5074194;28;20180;-75
2022/09/01 01:38:50;;;;;;;4.73;2.20;;;;;;;;;;5074504;28;20192;-75
2022/09/01 01:41:18;;;;;;;2.60;2.40;;;;;;;;;;5073911;28;20206;-76
2022/09/01 01:43:44;;;;;;;1.90;1.80;;;;;;;;;;5073825;28;20201;-75
2022/09/01 01:46:13;;;;;;;2.53;1.90;;;;;;;;;;5074030;28;20325;-75
2022/09/01 01:48:41;;;;;;;2.60;2.40;;;;;;;;;;5057920;28;20181;-75
2022/09/01 01:51:07;;;;;;;2.53;2.33;;;;;;;;;;5073942;28;20169;-75
2022/09/01 01:53:33;;;;;;;3.33;2.70;;;;;;;;;;5057377;28;20257;-75
2022/09/01 01:56:00;;;;;;;4.23;2.70;;;;;;;;;;5057253;28;20550;-75
2022/09/01 01:58:27;;;;;;;2.80;2.60;;;;;;;;;;5074028;28;20226;-75
2022/09/01 02:00:54;;;;;;;2.60;2.20;;;;;;;;;;5073702;28;20180;-75
2022/09/01 02:03:23;;;;;;;2.40;2.20;;;;;;;;;;5069406;28;20180;-75
2022/09/01 02:05:52;;;;;;;2.23;2.03;;;;;;;;;;5048923;28;20197;-75
2022/09/01 02:08:19;;;;;;;3.00;2.80;;;;;;;;;;5073739;28;20173;-75
2022/09/01 02:10:46;;;;;;;3.90;2.70;;;;;;;;;;5073513;28;20172;-75
2022/09/01 02:13:17;;;;;;;3.33;3.00;;;;;;;;;;5072689;28;20590;-75
2022/09/01 02:15:47;;;;;;;3.03;2.60;;;;;;;;;;5073533;28;20219;-75
2022/09/01 02:18:19;;;;;;;3.17;2.60;;;;;;;;;;5056908;28;20677;-75
2022/09/01 02:20:46;;;;;;;4.67;2.80;;;;;;;;;;5056814;28;20187;-75
2022/09/01 02:23:14;;;;;;;2.70;2.50;;;;;;;;;;5073353;28;20562;-75
2022/09/01 02:25:42;;;;;;;3.17;2.30;;;;;;;;;;5056812;28;20210;-75
2022/09/01 02:28:11;;;;;;;2.40;2.20;;;;;;;;;;5073555;28;20173;-75
2022/09/01 02:30:40;;;;;;;2.40;2.20;;;;;;;;;;5073458;28;20258;-75
2022/09/01 02:33:07;;;;;;;2.77;2.20;;;;;;;;;;5073130;28;20168;-75
2022/09/01 02:35:36;;;;;;;4.00;1.70;;;;;;;;;;5073051;28;20204;-75
2022/09/01 02:38:03;;;;;;;2.23;2.00;;;;;;;;;;5073112;28;20176;-75
2022/09/01 02:40:30;;;;;;;3.17;2.40;;;;;;;;;;5073013;28;20247;-75
2022/09/01 02:42:58;;;;;;;2.30;2.10;;;;;;;;;;5072977;28;20260;-75
2022/09/01 02:45:24;;;;;;;2.23;2.03;;;;;;;;;;5073228;28;20232;-76
2022/09/01 02:47:52;;;;;;;2.90;2.10;;;;;;;;;;5072957;28;20196;-75
2022/09/01 02:50:21;;;;;;;2.20;2.00;;;;;;;;;;5056729;28;20264;-75
2022/09/01 02:52:48;;;;;;;2.53;1.93;;;;;;;;;;5072627;28;20264;-75
2022/09/01 02:55:19;;;;;;;3.03;2.23;;;;;;;;;;5072709;28;20224;-75
2022/09/01 02:57:47;;;;;;;2.47;2.27;;;;;;;;;;5066932;28;20271;-75
2022/09/01 03:00:21;;;;;;;3.73;2.20;;;;;;;;;;5065484;28;20195;-75
2022/09/01 03:02:51;;;;;;;3.10;2.37;;;;;;;;;;5072691;28;20259;-76
2022/09/01 03:05:24;;;;;;;4.40;2.00;;;;;;;;;;5072333;28;20201;-75
2022/09/01 03:07:52;;;;;;;2.97;2.60;;;;;;;;;;5072815;28;20231;-75
2022/09/01 03:10:20;;;;;;;3.10;2.50;;;;;;;;;;5056276;28;20226;-76
2022/09/01 03:12:46;;;;;;;2.50;2.30;;;;;;;;;;5072245;28;20196;-75
2022/09/01 03:15:12;;;;;;;3.00;2.70;;;;;;;;;;5055521;28;20709;-75
2022/09/01 03:17:40;;;;;;;3.23;2.50;;;;;;;;;;5072135;28;20177;-75
2022/09/01 03:20:06;;;;;;;2.63;2.40;;;;;;;;;;5072275;28;20208;-76
2022/09/01 03:22:32;;;;;;;3.17;2.50;;;;;;;;;;5066192;28;20180;-75
2022/09/01 03:24:59;;;;;;;3.77;2.33;;;;;;;;;;5062740;28;20206;-76
2022/09/01 03:27:25;;;;;;;2.70;2.50;;;;;;;;;;5055674;28;20178;-75
2022/09/01 03:29:51;;;;;;;2.53;2.10;;;;;;;;;;5072043;28;20183;-75
2022/09/01 03:32:17;;;;;;;2.67;1.97;;;;;;;;;;5055269;28;20701;-75
2022/09/01 03:34:44;;;;;;;2.50;2.30;;;;;;;;;;5055384;28;20586;-75
2022/09/01 03:37:11;;;;;;;3.07;2.07;;;;;;;;;;5071905;28;20181;-75
2022/09/01 03:39:37;;;;;;;2.87;2.23;;;;;;;;;;5071810;28;20173;-75
2022/09/01 03:42:03;;;;;;;3.47;2.30;;;;;;;;;;5071438;28;20274;-76
2022/09/01 03:44:29;;;;;;;2.37;2.10;;;;;;;;;;5055209;28;20237;-75
2022/09/01 03:46:57;;;;;;;2.50;2.27;;;;;;;;;;5072966;28;20201;-75
2022/09/01 03:49:27;;;;;;;2.70;2.43;;;;;;;;;;5071634;28;20180;-75
2022/09/01 03:51:53;;;;;;;2.60;2.40;;;;;;;;;;5072618;28;20165;-76
2022/09/01 03:54:23;;;;;;;2.73;2.33;;;;;;;;;;5071571;28;20655;-75
2022/09/01 03:56:50;;;;;;;2.30;2.10;;;;;;;;;;5071602;28;20213;-75
2022/09/01 03:59:16;;;;;;;2.30;2.10;;;;;;;;;;5072920;28;20182;-76
2022/09/01 04:01:42;;;;;;;2.67;2.20;;;;;;;;;;5071420;28;20177;-75
2022/09/01 04:04:12;;;;;;;2.27;1.97;;;;;;;;;;5072551;28;20209;-75
2022/09/01 04:06:39;;;;;;;2.40;2.20;;;;;;;;;;5071604;28;20542;-76
2022/09/01 04:09:06;;;;;;;2.90;2.00;;;;;;;;;;5071439;28;20180;-76
2022/09/01 04:11:32;;;;;;;4.13;2.10;;;;;;;;;;5054593;28;20176;-75
2022/09/01 04:13:58;;;;;;;2.20;2.00;;;;;;;;;;5071045;28;20254;-75
2022/09/01 04:19:18;;;;;;;3.30;2.10;;;;;;;;;;5072898;28;20230;-75
2022/09/01 04:21:44;;;;;;;3.40;2.00;;;;;;;;;;5072287;28;20180;-75
2022/09/01 04:24:13;;;;;;;2.40;2.20;;;;;;;;;;5070945;28;20742;-75
2022/09/01 04:26:40;;;;;;;2.67;1.93;;;;;;;;;;5071225;28;20169;-75
2022/09/01 04:29:07;;;;;;;1.90;1.60;;;;;;;;;;5072771;28;20248;-76
2022/09/01 04:31:35;;;;;;;1.80;1.70;;;;;;;;;;5054804;28;20594;-75
2022/09/01 04:34:01;;;;;;;2.87;1.87;;;;;;;;;;5071098;28;20196;-75
2022/09/01 04:36:32;;;;;;;2.33;1.80;;;;;;;;;;5070789;28;20695;-75
2022/09/01 04:39:07;;;;;;;2.30;1.70;;;;;;;;;;5070873;28;20183;-76
2022/09/01 04:41:33;;;;;;;3.27;2.20;;;;;;;;;;5070827;28;20172;-75
2022/09/01 04:44:04;;;;;;;2.00;1.80;;;;;;;;;;5070751;28;20204;-75
2022/09/01 04:46:34;;;;;;;2.97;2.00;;;;;;;;;;5054969;28;20180;-75
2022/09/01 04:49:05;;;;;;;2.40;1.93;;;;;;;;;;5072244;28;20193;-75
2022/09/01 04:51:31;;;;;;;2.30;1.80;;;;;;;;;;5070579;28;20184;-75
2022/09/01 04:53:57;;;;;;;2.40;1.93;;;;;;;;;;5070818;28;20658;-75
2022/09/01 04:56:24;;;;;;;2.70;1.80;;;;;;;;;;5054468;28;20639;-75
2022/09/01 04:58:52;;;;;;;2.07;1.73;;;;;;;;;;5054099;28;20337;-75
2022/09/01 05:01:20;;;;;;;2.30;1.97;;;;;;;;;;5070597;28;20177;-75
2022/09/01 05:03:49;;;;;;;3.23;1.80;;;;;;;;;;5070425;28;20655;-75
2022/09/01 05:06:17;;;;;;;1.90;1.70;;;;;;;;;;5070618;28;20258;-75
2022/09/01 05:08:44;;;;;;;2.80;1.73;;;;;;;;;;5070566;28;20177;-75
2022/09/01 05:11:11;;;;;;;1.80;1.70;;;;;;;;;;5054347;28;20188;-75
2022/09/01 05:13:42;;;;;;;2.57;1.80;;;;;;;;;;5070526;28;20704;-75
2022/09/01 05:16:13;;;;;;;2.07;1.50;;;;;;;;;;5070618;28;20214;-75
2022/09/01 05:18:43;;;;;;;1.90;1.80;;;;;;;;;;5070429;28;20175;-75
2022/09/01 05:21:10;;;;;;;3.20;2.03;;;;;;;;;;5070318;28;20258;-75
2022/09/01 05:23:39;;;;;;;2.37;1.70;;;;;;;;;;5070181;28;20200;-75
2022/09/01 05:26:13;;;;;;;2.77;1.87;;;;;;;;;;5070702;28;20181;-75
2022/09/01 05:28:40;;;;;;;2.87;1.83;;;;;;;;;;5070592;28;20199;-75
2022/09/01 05:31:06;;;;;;;2.20;1.87;;;;;;;;;;5070523;28;20174;-75
2022/09/01 05:33:35;;;;;;;2.47;1.70;;;;;;;;;;5070235;28;20268;-75
2022/09/01 05:36:06;;;;;;;2.80;1.83;;;;;;;;;;5070167;28;20287;-75
2022/09/01 05:38:33;;;;;;;1.90;1.67;;;;;;;;;;5071616;28;20508;-75
2022/09/01 05:41:07;;;;;;;2.97;1.60;;;;;;;;;;5070804;28;20260;-75
2022/09/01 05:43:34;;;;;;;2.33;1.80;;;;;;;;;;5054209;28;20180;-74
2022/09/01 05:46:02;;;;;;;3.27;1.70;;;;;;;;;;5053669;28;20204;-74
2022/09/01 05:48:30;;;;;;;1.70;1.60;;;;;;;;;;5072171;28;20180;-74
2022/09/01 05:50:59;;;;;;;3.13;1.67;;;;;;;;;;5057774;28;20206;-75
2022/09/01 05:53:27;;;;;;;1.87;1.40;;;;;;;;;;5057492;28;20268;-78
2022/09/01 05:55:55;;;;;;;2.03;1.70;;;;;;;;;;5073867;28;20278;-74
2022/09/01 05:58:23;;;;;;;2.57;1.90;;;;;;;;;;5073617;28;20551;-74
2022/09/01 06:00:50;;;;;;;1.83;1.73;;;;;;;;;;5075234;28;20165;-74
2022/09/01 06:03:17;;;;;;;3.17;1.73;;;;;;;;;;5057262;28;20264;-74
2022/09/01 06:05:51;;;;;;;2.47;1.90;;;;;;;;;;5074890;28;20280;-74
2022/09/01 06:08:17;;;;;;;2.80;1.83;;;;;;;;;;5073609;28;20533;-74
2022/09/01 06:10:44;;;;;;;1.73;1.60;;;;;;;;;;5073402;28;20173;-73
2022/09/01 06:13:10;;;;;;;2.03;1.70;;;;;;;;;;5056711;28;20264;-73
2022/09/01 06:15:37;;;;;;;1.80;1.70;;;;;;;;;;5073906;28;20213;-74
2022/09/01 06:18:05;;;;;;;3.07;1.70;;;;;;;;;;5057074;28;20189;-74
2022/09/01 06:20:31;;;;;;;1.70;1.57;;;;;;;;;;5066861;28;20181;-74
2022/09/01 06:22:57;;;;;;;1.60;1.50;;;;;;;;;;5048254;28;20177;-75
2022/09/01 06:25:29;;;;;;;2.10;1.90;;;;;;;;;;5050523;28;20216;-75
2022/09/01 06:27:55;;;;;;;2.00;1.60;;;;;;;;;;5037674;28;20184;-75
2022/09/01 06:30:21;;;;;;;2.33;1.60;;;;;;;;;;5036773;28;20185;-75
2022/09/01 06:32:48;;;;;;;1.80;1.70;;;;;;;;;;5057871;28;20206;-74
2022/09/01 06:35:15;;;;;;;3.20;1.90;;;;;;;;;;5061565;28;20205;-74
2022/09/01 06:37:44;;;;;;;2.17;1.97;;;;;;;;;;5053214;28;20185;-74
2022/09/01 06:40:16;;;;;;;1.87;1.77;;;;;;;;;;5053474;28;20178;-75
2022/09/01 06:42:46;;;;;;;2.47;1.87;;;;;;;;;;5053052;28;20184;-74
2022/09/01 06:45:13;;;;;;;4.13;2.50;;;;;;;;;;5036317;28;20775;-76
2022/09/01 06:47:42;;;;;;;136.80;93.87;;;;;;;;;;5052844;28;20181;-76
2022/09/01 06:50:08;;;;;;;273.60;95.07;;;;;;;;;;5052913;28;20177;-76
2022/09/01 06:52:34;;;;;;;90.40;33.77;;;;;;;;;;5052600;28;20184;-78
2022/09/01 06:55:00;;;;;;;45.60;19.03;;;;;;;;;;5036292;28;20201;-78
2022/09/01 06:57:28;;;;;;;27.67;13.60;;;;;;;;;;5054477;28;20652;-78
2022/09/01 06:59:54;;;;;;;13.37;6.43;;;;;;;;;;5051704;28;20177;-78
2022/09/01 07:02:21;;;;;;;4.37;2.57;;;;;;;;;;5036117;28;20561;-78
2022/09/01 07:04:48;;;;;;;14.50;5.40;;;;;;;;;;5035813;28;20218;-78
2022/09/01 07:07:14;;;;;;;6.77;2.37;;;;;;;;;;5052669;28;20204;-78
2022/09/01 07:09:41;;;;;;;3.10;2.13;;;;;;;;;;5052776;28;20178;-79
2022/09/01 07:12:07;;;;;;;2.87;2.27;;;;;;;;;;5036384;28;20178;-78
2022/09/01 07:14:33;;;;;;;2.80;2.00;;;;;;;;;;5052522;28;20304;-79
2022/09/01 07:16:59;;;;;;;2.97;1.90;;;;;;;;;;5054604;28;20200;-79
2022/09/01 07:19:25;;;;;;;3.83;1.80;;;;;;;;;;5036528;28;20181;-79
2022/09/01 07:21:52;;;;;;;2.43;1.90;;;;;;;;;;5054183;28;20173;-79
2022/09/01 07:24:19;;;;;;;3.00;1.90;;;;;;;;;;5052886;28;20270;-79
2022/09/01 07:26:50;;;;;;;2.73;1.93;;;;;;;;;;5053993;28;20178;-79
2022/09/01 07:29:20;;;;;;;4.27;1.70;;;;;;;;;;5054357;28;20260;-79
2022/09/01 07:31:46;;;;;;;4.17;1.70;;;;;;;;;;5053718;28;20174;-79
2022/09/01 07:34:13;;;;;;;8.57;2.10;;;;;;;;;;5053264;28;20200;-79
2022/09/01 07:36:43;;;;;;;1.77;1.60;;;;;;;;;;5053488;28;20181;-80
2022/09/01 07:39:09;;;;;;;2.13;1.80;;;;;;;;;;5037473;28;20277;-79
2022/09/01 07:41:38;;;;;;;2.27;1.73;;;;;;;;;;5053250;28;20269;-79
2022/09/01 07:44:04;;;;;;;2.30;1.60;;;;;;;;;;5052292;28;20210;-76
2022/09/01 07:46:31;;;;;;;1.70;1.57;;;;;;;;;;5051776;28;20552;-76
2022/09/01 07:48:58;;;;;;;1.80;1.60;;;;;;;;;;5050713;28;20173;-76
2022/09/01 07:51:27;;;;;;;2.03;1.60;;;;;;;;;;5051573;28;20256;-78
2022/09/01 07:53:53;;;;;;;1.93;1.57;;;;;;;;;;5051505;28;20276;-76
2022/09/01 07:56:20;;;;;;;1.63;1.50;;;;;;;;;;5059770;28;20261;-76
2022/09/01 07:58:47;;;;;;;3.33;1.40;;;;;;;;;;5048225;28;20240;-76
2022/09/01 08:01:31;;;;;;;1.73;1.30;;;;;;;;;;5060034;28;20182;-77
2022/09/01 08:03:59;;;;;;;3.77;1.40;;;;;;;;;;5050360;28;20225;-77
2022/09/01 08:06:26;;;;;;;1.43;1.33;;;;;;;;;;5052983;28;20166;-77
2022/09/01 08:08:54;;;;;;;1.47;1.30;;;;;;;;;;5035517;28;20185;-76
2022/09/01 08:11:21;;;;;;;1.93;1.40;;;;;;;;;;5052346;28;20169;-76
2022/09/01 08:13:48;;;;;;;3.47;1.57;;;;;;;;;;5035765;28;20186;-77
2022/09/01 08:16:14;;;;;;;2.10;1.50;;;;;;;;;;5071985;28;20185;-76
2022/09/01 08:18:41;;;;;;;1.70;1.50;;;;;;;;;;5055306;28;20216;-76
2022/09/01 08:21:08;;;;;;;1.70;1.50;;;;;;;;;;5054875;28;20256;-76
2022/09/01 08:23:36;;;;;;;2.93;1.33;;;;;;;;;;5051362;28;20590;-76
2022/09/01 08:26:04;;;;;;;1.50;1.40;;;;;;;;;;5035357;28;20205;-76
2022/09/01 08:28:30;;;;;;;1.83;1.50;;;;;;;;;;5051733;28;20177;-76
2022/09/01 08:30:58;;;;;;;1.92;1.50;;;;;;;;;;5052601;28;20308;-76
2022/09/01 08:33:25;;;;;;;2.17;1.35;;;;;;;;;;5051515;28;20177;-76
2022/09/01 08:35:51;;;;;;;3.00;1.40;;;;;;;;;;5051643;28;20221;-76
2022/09/01 08:38:17;;;;;;;2.55;1.42;;;;;;;;;;5052629;28;20173;-76
2022/09/01 08:40:49;;;;;;;2.08;1.27;;;;;;;;;;5035214;28;20318;-76
2022/09/01 08:43:34;;;;;;;1.45;1.33;;;;;;;;;;5051527;28;20184;-76
2022/09/01 08:46:23;;;;;;;2.08;1.60;;;;;;;;;;5052653;28;20197;-76
2022/09/01 08:48:54;;;;;;;2.90;1.50;;;;;;;;;;5038547;28;20193;-76
2022/09/01 08:51:36;;;;;;;1.50;1.40;;;;;;;;;;5051010;28;20552;-76
2022/09/01 08:54:06;;;;;;;2.03;1.42;;;;;;;;;;5051228;28;20285;-76
2022/09/01 08:56:35;;;;;;;1.75;1.50;;;;;;;;;;5051260;28;20166;-76
2022/09/01 08:59:01;;;;;;;2.38;1.42;;;;;;;;;;5051544;28;20549;-76
2022/09/01 09:01:34;;;;;;;1.95;1.40;;;;;;;;;;5052215;28;20169;-76
2022/09/01 09:04:09;;;;;;;1.25;1.15;;;;;;;;;;5050765;28;20221;-76
2022/09/01 09:06:35;;;;;;;1.95;1.30;;;;;;;;;;5049626;28;20662;-77
2022/09/01 09:09:03;;;;;;;2.35;1.55;;;;;;;;;;5050432;28;20248;-77
2022/09/01 09:11:49;;;;;;;2.65;1.40;;;;;;;;;;5050550;28;20178;-77
2022/09/01 09:14:15;;;;;;;1.67;1.40;;;;;;;;;;5050136;28;20213;-77
2022/09/01 09:16:44;;;;;;;3.05;1.50;;;;;;;;;;5052000;28;20633;-76
2022/09/01 09:19:19;;;;;;;1.33;1.23;;;;;;;;;;5050557;28;20174;-76
2022/09/01 09:21:47;;;;;;;1.98;1.40;;;;;;;;;;5051560;28;20168;-76
2022/09/01 09:24:18;;;;;;;2.08;1.40;;;;;;;;;;5053563;28;20279;-76
2022/09/01 09:26:48;;;;;;;1.40;1.30;;;;;;;;;;5054291;28;20177;-76
2022/09/01 09:29:20;;;;;;;1.88;1.33;;;;;;;;;;5678782;22;20275;-75
2022/09/01 09:31:49;;;;;;;2.28;1.30;;;;;;;;;;5054056;28;20200;-75
2022/09/01 09:34:17;;;;;;;1.60;1.40;;;;;;;;;;5054196;28;20245;-75
2022/09/01 09:36:45;;;;;;;1.70;1.58;;;;;;;;;;5054261;28;20173;-75
2022/09/01 09:39:17;;;;;;;2.22;1.23;;;;;;;;;;5053782;28;20194;-74
2022/09/01 09:42:00;;;;;;;1.38;1.27;;;;;;;;;;5055920;28;20333;-75
2022/09/01 09:44:31;;;;;;;2.33;1.50;;;;;;;;;;5054227;28;20205;-75
2022/09/01 09:46:57;;;;;;;1.95;1.30;;;;;;;;;;5047683;28;20189;-75
2022/09/01 10:59:30;;;;;;;1.50;1.40;;;;;;;;;;5922187;22;20213;-80
2022/09/01 11:02:13;;;;;;;1.67;1.52;;;;;;;;;;5073374;28;20225;-78
2022/09/01 11:04:39;;;;;;;1.90;1.60;;;;;;;;;;5072680;28;20291;-79
2022/09/01 11:07:27;;;;;;;2.42;1.42;;;;;;;;;;5072804;28;20257;-79
2022/09/01 11:10:12;;;;;;;2.22;1.52;;;;;;;;;;5072281;28;20692;-77
2022/09/01 11:12:38;;;;;;;1.73;1.38;;;;;;;;;;5073000;28;20623;-77
2022/09/01 11:15:05;;;;;;;1.60;1.40;;;;;;;;;;5072340;28;20188;-77
2022/09/01 11:17:58;;;;;;;1.90;1.50;;;;;;;;;;5072329;28;20219;-77
2022/09/01 11:20:29;;;;;;;1.85;1.75;;;;;;;;;;5074045;28;20212;-79
2022/09/01 11:22:54;;;;;;;1.70;1.60;;;;;;;;;;5075770;28;20227;-81
2022/09/01 11:25:42;;;;;;;1.98;1.50;;;;;;;;;;5077953;28;20204;-80
2022/09/01 11:28:10;;;;;;;10.02;1.95;;;;;;;;;;5079344;28;20164;-78
2022/09/01 11:30:40;;;;;;;1.98;1.65;;;;;;;;;;5074366;28;20284;-80
2022/09/01 11:33:12;;;;;;;2.55;1.60;;;;;;;;;;5076995;28;20169;-80
2022/09/01 11:35:38;;;;;;;2.42;1.38;;;;;;;;;;5077455;28;20173;-80
2022/09/01 11:38:06;;;;;;;1.75;1.65;;;;;;;;;;5059590;28;20177;-79
2022/09/01 11:40:33;;;;;;;1.60;1.40;;;;;;;;;;5057706;28;20205;-80
2022/09/01 11:43:02;;;;;;;2.83;1.65;;;;;;;;;;5076424;28;20210;-80
2022/09/01 11:45:31;;;;;;;1.63;1.52;;;;;;;;;;5075079;28;20209;-79
2022/09/01 11:48:02;;;;;;;1.77;1.50;;;;;;;;;;5076486;28;20168;-81
2022/09/01 11:50:33;;;;;;;1.67;1.58;;;;;;;;;;5077464;28;20659;-81
2022/09/01 11:53:07;;;;;;;1.92;1.40;;;;;;;;;;5060653;28;20169;-81
2022/09/01 11:55:41;;;;;;;1.92;1.50;;;;;;;;;;5076982;28;20173;-81
2022/09/01 11:58:11;;;;;;;2.33;1.50;;;;;;;;;;5073246;28;20177;-81
2022/09/01 12:00:39;;;;;;;1.50;1.40;;;;;;;;;;5072265;28;20230;-83
2022/09/01 12:03:18;;;;;;;1.60;1.50;;;;;;;;;;5072034;28;20177;-82
2022/09/01 12:05:45;;;;;;;1.55;1.30;;;;;;;;;;5072093;28;20200;-82
2022/09/01 12:08:13;;;;;;;3.72;1.50;;;;;;;;;;5074216;28;20173;-79
2022/09/01 12:10:39;;;;;;;1.42;1.30;;;;;;;;;;5073467;28;20266;-79
2022/09/01 12:13:06;;;;;;;1.70;1.27;;;;;;;;;;5058461;28;20188;-80
2022/09/01 12:15:35;;;;;;;2.67;1.23;;;;;;;;;;5075567;28;20173;-80
2022/09/01 12:18:20;;;;;;;4.00;1.35;;;;;;;;;;5060251;28;20282;-79
2022/09/01 12:20:47;;;;;;;2.20;1.35;;;;;;;;;;5075842;28;20193;-80
2022/09/01 12:23:26;;;;;;;1.67;1.42;;;;;;;;;;5076211;28;20256;-79
2022/09/01 12:25:54;;;;;;;1.70;1.35;;;;;;;;;;5076102;28;20295;-80
2022/09/01 12:28:22;;;;;;;1.67;1.50;;;;;;;;;;5076259;28;20173;-80
2022/09/01 12:30:48;;;;;;;2.85;1.40;;;;;;;;;;5059004;28;20250;-80
2022/09/01 12:33:17;;;;;;;1.67;1.40;;;;;;;;;;5075563;28;20169;-79
2022/09/01 12:35:44;;;;;;;2.30;1.30;;;;;;;;;;5073774;28;20205;-83
2022/09/01 12:38:36;;;;;;;1.98;1.20;;;;;;;;;;5072946;28;20204;-82
2022/09/01 12:41:02;;;;;;;3.45;1.38;;;;;;;;;;5072295;28;20216;-83
2022/09/01 12:43:31;;;;;;;3.13;1.30;;;;;;;;;;5075143;28;20181;-81
2022/09/01 12:46:00;;;;;;;1.73;1.30;;;;;;;;;;5074153;28;20206;-82
2022/09/01 12:48:31;;;;;;;2.35;1.30;;;;;;;;;;5073674;28;20643;-83
2022/09/01 12:50:58;;;;;;;1.70;1.30;;;;;;;;;;5073000;28;20193;-79
2022/09/01 12:53:27;;;;;;;2.05;1.20;;;;;;;;;;5074986;28;20547;-81
2022/09/01 12:56:25;;;;;;;2.67;1.20;;;;;;;;;;5075414;28;20172;-81
2022/09/01 12:59:02;;;;;;;1.27;1.10;;;;;;;;;;5067922;28;20185;-81
2022/09/01 13:01:31;;;;;;;1.30;1.20;;;;;;;;;;5079602;28;20278;-81
2022/09/01 13:04:15;;;;;;;1.48;1.20;;;;;;;;;;5079324;28;20195;-82
2022/09/01 13:06:41;;;;;;;1.58;1.17;;;;;;;;;;5077655;28;20169;-83
2022/09/01 13:09:07;;;;;;;1.88;1.15;;;;;;;;;;5076757;28;20650;-80
2022/09/01 13:11:33;;;;;;;3.92;1.20;;;;;;;;;;5060137;28;20176;-85
2022/09/01 13:14:00;;;;;;;1.55;1.10;;;;;;;;;;5058975;28;20188;-86
2022/09/01 13:16:26;;;;;;;1.33;1.20;;;;;;;;;;5075027;28;20173;-86
2022/09/01 13:18:52;;;;;;;1.30;1.20;;;;;;;;;;5074697;28;20635;-86
2022/09/01 13:21:18;;;;;;;2.00;1.20;;;;;;;;;;5074795;28;20180;-86
2022/09/01 13:23:44;;;;;;;1.85;1.13;;;;;;;;;;5058216;28;20231;-86
2022/09/01 13:26:10;;;;;;;1.67;1.23;;;;;;;;;;5057893;28;20653;-86
2022/09/01 13:28:36;;;;;;;2.38;1.13;;;;;;;;;;5074587;28;20173;-87
2022/09/01 13:31:04;;;;;;;1.20;1.10;;;;;;;;;;5058724;28;20197;-84
2022/09/01 13:33:30;;;;;;;1.67;1.20;;;;;;;;;;5074580;28;20227;-84
2022/09/01 13:35:57;;;;;;;1.35;1.20;;;;;;;;;;5058039;28;20177;-84
2022/09/01 13:38:22;;;;;;;2.03;1.17;;;;;;;;;;5057825;28;20177;-84
2022/09/01 13:40:49;;;;;;;3.13;1.17;;;;;;;;;;5073938;28;20243;-83
2022/09/01 13:43:18;;;;;;;1.63;1.20;;;;;;;;;;5075083;28;20263;-83
2022/09/01 13:45:44;;;;;;;2.30;1.10;;;;;;;;;;5058546;28;20342;-83
2022/09/01 13:48:10;;;;;;;3.38;1.30;;;;;;;;;;5076961;28;20266;-84
2022/09/01 13:50:40;;;;;;;2.25;1.30;;;;;;;;;;5059943;28;20200;-84
2022/09/01 13:53:06;;;;;;;1.98;1.27;;;;;;;;;;5076595;28;20169;-84
2022/09/01 13:55:33;;;;;;;1.92;1.17;;;;;;;;;;5076320;28;20264;-83
2022/09/01 13:57:59;;;;;;;1.65;1.20;;;;;;;;;;5076260;28;20177;-83
2022/09/01 14:00:28;;;;;;;1.40;1.13;;;;;;;;;;5076468;28;20303;-84
2022/09/01 14:02:55;;;;;;;1.58;1.20;;;;;;;;;;5058782;28;20181;-83
2022/09/01 14:05:23;;;;;;;2.28;1.20;;;;;;;;;;5074782;28;20207;-83
2022/09/01 14:07:49;;;;;;;1.40;1.13;;;;;;;;;;5058726;28;20302;-84
2022/09/01 14:10:16;;;;;;;1.40;1.30;;;;;;;;;;5058780;28;20242;-84
2022/09/01 14:12:42;;;;;;;6.15;1.30;;;;;;;;;;5075459;28;20284;-83
2022/09/01 14:15:10;;;;;;;1.75;1.40;;;;;;;;;;5074937;28;20176;-79
2022/09/01 14:17:36;;;;;;;2.03;1.35;;;;;;;;;;5058106;28;20326;-81
2022/09/01 14:20:05;;;;;;;2.08;1.40;;;;;;;;;;5074298;28;20193;-81
2022/09/01 14:22:32;;;;;;;2.58;1.10;;;;;;;;;;5075168;28;20190;-82
2022/09/01 14:24:58;;;;;;;2.60;1.27;;;;;;;;;;5082302;28;20231;-83
2022/09/01 14:27:24;;;;;;;1.58;1.30;;;;;;;;;;5071764;28;20663;-83
2022/09/01 14:29:51;;;;;;;3.05;1.33;;;;;;;;;;5076431;28;20184;-84
2022/09/01 14:32:21;;;;;;;1.85;1.23;;;;;;;;;;5079074;28;20196;-81
2022/09/01 14:34:48;;;;;;;1.63;1.38;;;;;;;;;;5094611;28;20173;-81
2022/09/01 14:37:14;;;;;;;1.40;1.30;;;;;;;;;;5094851;28;20176;-82
2022/09/01 14:39:40;;;;;;;1.50;1.13;;;;;;;;;;5094938;28;20257;-83
2022/09/01 14:42:08;;;;;;;2.05;1.30;;;;;;;;;;5094908;28;20634;-82
2022/09/01 14:44:37;;;;;;;2.45;1.23;;;;;;;;;;5095671;28;20199;-78
2022/09/01 14:47:04;;;;;;;2.50;1.40;;;;;;;;;;5097371;28;20225;-78
2022/09/01 14:49:35;;;;;;;2.03;1.17;;;;;;;;;;5076671;28;20193;-80
2022/09/01 14:52:03;;;;;;;1.50;1.20;;;;;;;;;;5095599;28;20171;-81
2022/09/01 14:54:29;;;;;;;1.83;1.30;;;;;;;;;;5094384;28;20168;-79
2022/09/01 14:56:55;;;;;;;2.63;1.30;;;;;;;;;;5093098;28;20681;-79
2022/09/01 14:59:21;;;;;;;2.28;1.20;;;;;;;;;;5064493;28;20295;-79
2022/09/01 15:01:47;;;;;;;1.40;1.23;;;;;;;;;;5056382;28;20191;-79
2022/09/01 15:04:13;;;;;;;1.40;1.30;;;;;;;;;;5055927;28;20702;-79
2022/09/01 15:06:39;;;;;;;3.53;1.40;;;;;;;;;;5072686;28;20757;-79
2022/09/01 15:09:05;;;;;;;1.35;1.20;;;;;;;;;;5055893;28;20296;-79
2022/09/01 15:11:31;;;;;;;1.52;1.20;;;;;;;;;;5056907;28;20295;-79
2022/09/01 15:13:58;;;;;;;1.30;1.20;;;;;;;;;;5072834;28;20351;-79
2022/09/01 15:16:27;;;;;;;2.35;1.33;;;;;;;;;;5056036;28;20223;-79
2022/09/01 15:18:54;;;;;;;1.27;1.17;;;;;;;;;;5071508;28;20203;-79
2022/09/01 15:21:23;;;;;;;1.50;1.20;;;;;;;;;;5069531;28;20540;-79
2022/09/01 15:23:49;;;;;;;3.00;1.20;;;;;;;;;;5084084;28;20657;-79
2022/09/01 15:26:15;;;;;;;5.20;1.38;;;;;;;;;;5056443;28;20655;-79
2022/09/01 15:28:42;;;;;;;1.45;1.30;;;;;;;;;;5055960;28;20173;-78
2022/09/01 15:31:09;;;;;;;1.98;1.30;;;;;;;;;;5055869;28;20197;-79
2022/09/01 15:33:36;;;;;;;1.30;1.20;;;;;;;;;;5072355;28;20630;-79
2022/09/01 15:36:02;;;;;;;1.50;1.30;;;;;;;;;;5072387;28;20183;-79
2022/09/01 15:38:28;;;;;;;3.22;1.40;;;;;;;;;;5055717;28;20196;-79
2022/09/01 15:40:54;;;;;;;1.98;1.40;;;;;;;;;;5055662;28;20695;-79
2022/09/01 15:43:20;;;;;;;1.30;1.20;;;;;;;;;;5072124;28;20678;-79
2022/09/01 15:45:47;;;;;;;1.50;1.20;;;;;;;;;;5071801;28;20214;-79
2022/09/01 15:48:13;;;;;;;2.25;1.20;;;;;;;;;;5055841;28;20242;-79
2022/09/01 15:50:39;;;;;;;1.88;1.20;;;;;;;;;;5055441;28;20291;-79
2022/09/01 15:53:07;;;;;;;1.65;1.35;;;;;;;;;;5055576;28;20275;-79
2022/09/01 15:55:44;;;;;;;2.13;1.30;;;;;;;;;;5071541;28;20311;-79
2022/09/01 15:58:11;;;;;;;2.97;1.20;;;;;;;;;;5055498;28;20275;-79
2022/09/01 16:00:44;;;;;;;1.38;1.10;;;;;;;;;;5071382;28;20205;-79
2022/09/01 16:03:10;;;;;;;1.65;1.27;;;;;;;;;;5057109;28;20184;-79
2022/09/01 16:05:38;;;;;;;2.50;1.30;;;;;;;;;;5071852;28;20205;-79
2022/09/01 16:08:08;;;;;;;3.28;1.30;;;;;;;;;;5071360;28;20613;-79